sensor_id;sensor_type;location;lat;lon;timestamp;P1;durP1;ratioP1;P2;durP2;ratioP2
70049;SDS011;57391;51.306;22.680;2022-09-20T00:01:30;8.30;;;4.20;;
70049;SDS011;57391;51.306;22.680;2022-09-20T00:04:00;8.50;;;4.00;;
70049;SDS011;57391;51.306;22.680;2022-09-20T00:06:30;7.90;;;4.30;;
70049;SDS011;57391;51.306;22.680;2022-09-20T00:08:58;8.50;;;4.10;;
70049;SDS011;57391;51.306;22.680;2022-09-20T00:11:29;7.60;;;4.00;;
70049;SDS011;57391;51.306;22.680;2022-09-20T00:14:00;7.30;;;4.00;;
70049;SDS011;57391;51.306;22.680;2022-09-20T00:16:32;8.30;;;4.20;;
70049;SDS011;57391;51.306;22.680;2022-09-20T00:19:03;8.20;;;4.30;;
70049;SDS011;57391;51.306;22.680;2022-09-20T00:21:33;9.50;;;4.40;;
70049;SDS011;57391;51.306;22.680;2022-09-20T00:24:02;9.30;;;4.70;;
70049;SDS011;57391;51.306;22.680;2022-09-20T00:26:29;8.00;;;4.50;;
70049;SDS011;57391;51.306;22.680;2022-09-20T00:28:57;8.70;;;4.50;;
70049;SDS011;57391;51.306;22.680;2022-09-20T00:31:25;7.80;;;4.70;;
70049;SDS011;57391;51.306;22.680;2022-09-20T00:33:54;8.40;;;4.20;;
70049;SDS011;57391;51.306;22.680;2022-09-20T00:36:40;8.80;;;4.70;;
70049;SDS011;57391;51.306;22.680;2022-09-20T00:39:11;6.70;;;3.90;;
70049;SDS011;57391;51.306;22.680;2022-09-20T00:41:39;7.30;;;4.30;;
70049;SDS011;57391;51.306;22.680;2022-09-20T00:44:41;7.80;;;3.80;;
70049;SDS011;57391;51.306;22.680;2022-09-20T00:47:39;7.10;;;3.90;;
70049;SDS011;57391;51.306;22.680;2022-09-20T00:52:54;7.10;;;3.90;;
70049;SDS011;57391;51.306;22.680;2022-09-20T00:55:26;8.50;;;3.80;;
70049;SDS011;57391;51.306;22.680;2022-09-20T00:57:54;7.20;;;3.40;;
70049;SDS011;57391;51.306;22.680;2022-09-20T01:00:22;6.70;;;3.80;;
70049;SDS011;57391;51.306;22.680;2022-09-20T01:02:54;5.90;;;3.50;;
70049;SDS011;57391;51.306;22.680;2022-09-20T01:05:25;8.00;;;3.70;;
70049;SDS011;57391;51.306;22.680;2022-09-20T01:07:53;8.10;;;3.80;;
70049;SDS011;57391;51.306;22.680;2022-09-20T01:10:22;6.30;;;3.60;;
70049;SDS011;57391;51.306;22.680;2022-09-20T01:12:51;7.20;;;3.90;;
70049;SDS011;57391;51.306;22.680;2022-09-20T01:15:20;7.30;;;4.00;;
70049;SDS011;57391;51.306;22.680;2022-09-20T01:17:51;7.20;;;3.90;;
70049;SDS011;57391;51.306;22.680;2022-09-20T01:28:38;7.90;;;3.80;;
70049;SDS011;57391;51.306;22.680;2022-09-20T01:31:16;7.20;;;3.50;;
70049;SDS011;57391;51.306;22.680;2022-09-20T01:36:40;6.90;;;3.70;;
70049;SDS011;57391;51.306;22.680;2022-09-20T01:39:25;7.40;;;3.90;;
70049;SDS011;57391;51.306;22.680;2022-09-20T01:42:01;6.40;;;3.50;;
70049;SDS011;57391;51.306;22.680;2022-09-20T01:45:01;6.50;;;3.40;;
70049;SDS011;57391;51.306;22.680;2022-09-20T02:12:41;7.00;;;4.00;;
70049;SDS011;57391;51.306;22.680;2022-09-20T02:18:52;6.50;;;3.60;;
70049;SDS011;57391;51.306;22.680;2022-09-20T02:36:58;7.50;;;4.00;;
70049;SDS011;57391;51.306;22.680;2022-09-20T02:39:35;7.00;;;3.90;;
70049;SDS011;57391;51.306;22.680;2022-09-20T02:42:16;7.60;;;4.30;;
70049;SDS011;57391;51.306;22.680;2022-09-20T02:47:41;8.10;;;4.50;;
70049;SDS011;57391;51.306;22.680;2022-09-20T02:53:42;8.80;;;4.80;;
70049;SDS011;57391;51.306;22.680;2022-09-20T02:56:41;8.60;;;4.80;;
70049;SDS011;57391;51.306;22.680;2022-09-20T02:59:35;9.90;;;5.20;;
70049;SDS011;57391;51.306;22.680;2022-09-20T03:02:26;10.40;;;5.90;;
70049;SDS011;57391;51.306;22.680;2022-09-20T03:08:14;11.70;;;6.20;;
70049;SDS011;57391;51.306;22.680;2022-09-20T03:10:58;13.00;;;6.60;;
70049;SDS011;57391;51.306;22.680;2022-09-20T03:16:49;11.90;;;6.50;;
70049;SDS011;57391;51.306;22.680;2022-09-20T03:19:47;11.70;;;6.40;;
70049;SDS011;57391;51.306;22.680;2022-09-20T03:23:36;13.70;;;7.30;;
70049;SDS011;57391;51.306;22.680;2022-09-20T03:26:22;14.80;;;7.40;;
70049;SDS011;57391;51.306;22.680;2022-09-20T03:32:09;13.70;;;7.20;;
70049;SDS011;57391;51.306;22.680;2022-09-20T03:46:43;17.50;;;9.00;;
70049;SDS011;57391;51.306;22.680;2022-09-20T04:01:49;19.10;;;10.30;;
70049;SDS011;57391;51.306;22.680;2022-09-20T04:04:33;20.40;;;11.10;;
70049;SDS011;57391;51.306;22.680;2022-09-20T04:07:39;20.30;;;11.00;;
70049;SDS011;57391;51.306;22.680;2022-09-20T04:18:38;22.80;;;11.80;;
70049;SDS011;57391;51.306;22.680;2022-09-20T04:24:18;20.80;;;10.10;;
70049;SDS011;57391;51.306;22.680;2022-09-20T04:27:22;22.80;;;10.30;;
70049;SDS011;57391;51.306;22.680;2022-09-20T04:30:01;22.80;;;11.20;;
70049;SDS011;57391;51.306;22.680;2022-09-20T04:39:38;23.30;;;12.10;;
70049;SDS011;57391;51.306;22.680;2022-09-20T04:48:31;21.30;;;11.60;;
70049;SDS011;57391;51.306;22.680;2022-09-20T04:51:25;21.40;;;11.50;;
70049;SDS011;57391;51.306;22.680;2022-09-20T04:59:52;20.50;;;11.20;;
70049;SDS011;57391;51.306;22.680;2022-09-20T05:28:24;25.70;;;12.50;;
70049;SDS011;57391;51.306;22.680;2022-09-20T05:31:12;18.50;;;10.70;;
70049;SDS011;57391;51.306;22.680;2022-09-20T05:33:53;21.70;;;11.90;;
70049;SDS011;57391;51.306;22.680;2022-09-20T05:36:30;21.50;;;11.50;;
70049;SDS011;57391;51.306;22.680;2022-09-20T05:57:03;19.60;;;11.30;;
70049;SDS011;57391;51.306;22.680;2022-09-20T05:59:52;21.10;;;12.20;;
70049;SDS011;57391;51.306;22.680;2022-09-20T06:14:45;28.60;;;14.20;;
70049;SDS011;57391;51.306;22.680;2022-09-20T06:17:43;25.50;;;14.40;;
70049;SDS011;57391;51.306;22.680;2022-09-20T06:20:43;26.40;;;14.10;;
70049;SDS011;57391;51.306;22.680;2022-09-20T06:23:20;33.30;;;16.20;;
70049;SDS011;57391;51.306;22.680;2022-09-20T06:25:56;34.30;;;16.50;;
70049;SDS011;57391;51.306;22.680;2022-09-20T06:28:30;38.10;;;17.00;;
70049;SDS011;57391;51.306;22.680;2022-09-20T06:31:00;39.10;;;17.60;;
70049;SDS011;57391;51.306;22.680;2022-09-20T06:33:32;34.70;;;16.80;;
70049;SDS011;57391;51.306;22.680;2022-09-20T06:36:30;33.00;;;15.30;;
70049;SDS011;57391;51.306;22.680;2022-09-20T06:42:18;30.00;;;14.70;;
70049;SDS011;57391;51.306;22.680;2022-09-20T06:44:45;30.40;;;14.80;;
70049;SDS011;57391;51.306;22.680;2022-09-20T06:47:13;32.00;;;15.70;;
70049;SDS011;57391;51.306;22.680;2022-09-20T06:49:40;30.60;;;14.70;;
70049;SDS011;57391;51.306;22.680;2022-09-20T06:52:16;28.00;;;14.00;;
70049;SDS011;57391;51.306;22.680;2022-09-20T06:54:50;25.30;;;12.20;;
70049;SDS011;57391;51.306;22.680;2022-09-20T06:57:28;23.90;;;12.10;;
70049;SDS011;57391;51.306;22.680;2022-09-20T07:00:00;23.90;;;13.10;;
70049;SDS011;57391;51.306;22.680;2022-09-20T07:02:28;21.60;;;12.00;;
70049;SDS011;57391;51.306;22.680;2022-09-20T07:04:54;21.20;;;11.50;;
70049;SDS011;57391;51.306;22.680;2022-09-20T07:07:24;19.70;;;10.50;;
70049;SDS011;57391;51.306;22.680;2022-09-20T07:09:51;18.60;;;10.00;;
70049;SDS011;57391;51.306;22.680;2022-09-20T07:12:18;18.90;;;9.80;;
70049;SDS011;57391;51.306;22.680;2022-09-20T07:14:46;18.60;;;10.20;;
70049;SDS011;57391;51.306;22.680;2022-09-20T07:17:13;17.10;;;9.10;;
70049;SDS011;57391;51.306;22.680;2022-09-20T07:19:40;14.40;;;8.80;;
70049;SDS011;57391;51.306;22.680;2022-09-20T07:22:07;14.00;;;8.50;;
70049;SDS011;57391;51.306;22.680;2022-09-20T07:24:34;13.80;;;8.30;;
70049;SDS011;57391;51.306;22.680;2022-09-20T07:27:02;14.60;;;9.00;;
70049;SDS011;57391;51.306;22.680;2022-09-20T07:29:30;20.70;;;11.30;;
70049;SDS011;57391;51.306;22.680;2022-09-20T07:31:58;27.70;;;14.80;;
70049;SDS011;57391;51.306;22.680;2022-09-20T07:34:25;25.80;;;14.40;;
70049;SDS011;57391;51.306;22.680;2022-09-20T07:36:52;26.30;;;14.90;;
70049;SDS011;57391;51.306;22.680;2022-09-20T07:39:20;23.50;;;14.60;;
70049;SDS011;57391;51.306;22.680;2022-09-20T07:41:47;22.40;;;13.60;;
70049;SDS011;57391;51.306;22.680;2022-09-20T07:44:17;22.40;;;13.70;;
70049;SDS011;57391;51.306;22.680;2022-09-20T07:46:55;19.10;;;11.30;;
70049;SDS011;57391;51.306;22.680;2022-09-20T07:49:27;17.40;;;11.50;;
70049;SDS011;57391;51.306;22.680;2022-09-20T07:51:57;16.30;;;10.50;;
70049;SDS011;57391;51.306;22.680;2022-09-20T07:54:25;18.90;;;11.60;;
70049;SDS011;57391;51.306;22.680;2022-09-20T07:56:56;16.80;;;11.20;;
70049;SDS011;57391;51.306;22.680;2022-09-20T07:59:23;21.40;;;11.50;;
70049;SDS011;57391;51.306;22.680;2022-09-20T08:01:51;16.50;;;10.00;;
70049;SDS011;57391;51.306;22.680;2022-09-20T08:04:18;16.50;;;8.20;;
70049;SDS011;57391;51.306;22.680;2022-09-20T08:06:45;13.40;;;7.30;;
70049;SDS011;57391;51.306;22.680;2022-09-20T08:09:13;14.10;;;6.70;;
70049;SDS011;57391;51.306;22.680;2022-09-20T08:11:41;12.40;;;7.00;;
70049;SDS011;57391;51.306;22.680;2022-09-20T08:14:13;12.50;;;7.40;;
70049;SDS011;57391;51.306;22.680;2022-09-20T08:16:43;14.10;;;7.80;;
70049;SDS011;57391;51.306;22.680;2022-09-20T08:19:19;14.50;;;8.30;;
70049;SDS011;57391;51.306;22.680;2022-09-20T08:21:49;14.20;;;8.50;;
70049;SDS011;57391;51.306;22.680;2022-09-20T08:24:18;24.90;;;11.60;;
70049;SDS011;57391;51.306;22.680;2022-09-20T08:26:46;25.40;;;11.30;;
70049;SDS011;57391;51.306;22.680;2022-09-20T08:29:14;31.70;;;12.80;;
70049;SDS011;57391;51.306;22.680;2022-09-20T08:31:41;29.60;;;12.10;;
70049;SDS011;57391;51.306;22.680;2022-09-20T08:34:10;29.90;;;13.40;;
70049;SDS011;57391;51.306;22.680;2022-09-20T08:36:42;37.50;;;15.40;;
70049;SDS011;57391;51.306;22.680;2022-09-20T08:39:13;40.70;;;17.40;;
70049;SDS011;57391;51.306;22.680;2022-09-20T08:45:02;50.50;;;20.00;;
70049;SDS011;57391;51.306;22.680;2022-09-20T08:47:36;47.60;;;18.50;;
70049;SDS011;57391;51.306;22.680;2022-09-20T08:50:14;45.80;;;19.70;;
70049;SDS011;57391;51.306;22.680;2022-09-20T08:52:45;45.70;;;18.60;;
70049;SDS011;57391;51.306;22.680;2022-09-20T08:55:20;43.60;;;18.60;;
70049;SDS011;57391;51.306;22.680;2022-09-20T08:57:52;43.70;;;17.80;;
70049;SDS011;57391;51.306;22.680;2022-09-20T09:00:32;41.30;;;18.70;;
70049;SDS011;57391;51.306;22.680;2022-09-20T09:03:12;38.60;;;18.80;;
70049;SDS011;57391;51.306;22.680;2022-09-20T09:05:53;35.20;;;16.70;;
70049;SDS011;57391;51.306;22.680;2022-09-20T09:08:27;35.70;;;16.60;;
70049;SDS011;57391;51.306;22.680;2022-09-20T09:10:58;36.40;;;17.70;;
70049;SDS011;57391;51.306;22.680;2022-09-20T09:13:53;38.00;;;17.70;;
70049;SDS011;57391;51.306;22.680;2022-09-20T09:16:29;33.10;;;16.60;;
70049;SDS011;57391;51.306;22.680;2022-09-20T09:19:25;18.20;;;11.40;;
70049;SDS011;57391;51.306;22.680;2022-09-20T09:22:03;16.60;;;10.20;;
70049;SDS011;57391;51.306;22.680;2022-09-20T09:24:32;14.10;;;9.40;;
70049;SDS011;57391;51.306;22.680;2022-09-20T09:27:11;14.10;;;9.10;;
70049;SDS011;57391;51.306;22.680;2022-09-20T09:29:50;11.20;;;8.10;;
70049;SDS011;57391;51.306;22.680;2022-09-20T09:32:24;10.70;;;7.00;;
70049;SDS011;57391;51.306;22.680;2022-09-20T09:34:55;9.70;;;6.10;;
70049;SDS011;57391;51.306;22.680;2022-09-20T09:37:56;9.40;;;5.80;;
70049;SDS011;57391;51.306;22.680;2022-09-20T09:40:27;8.50;;;5.60;;
70049;SDS011;57391;51.306;22.680;2022-09-20T09:42:59;8.90;;;5.10;;
70049;SDS011;57391;51.306;22.680;2022-09-20T09:45:36;7.40;;;5.00;;
70049;SDS011;57391;51.306;22.680;2022-09-20T09:48:30;8.30;;;5.40;;
70049;SDS011;57391;51.306;22.680;2022-09-20T09:51:15;8.40;;;5.70;;
70049;SDS011;57391;51.306;22.680;2022-09-20T09:53:46;7.60;;;4.70;;
70049;SDS011;57391;51.306;22.680;2022-09-20T10:02:01;7.50;;;4.90;;
70049;SDS011;57391;51.306;22.680;2022-09-20T10:04:59;7.80;;;4.70;;
70049;SDS011;57391;51.306;22.680;2022-09-20T10:14:21;7.80;;;4.50;;
70049;SDS011;57391;51.306;22.680;2022-09-20T10:17:28;7.90;;;4.50;;
70049;SDS011;57391;51.306;22.680;2022-09-20T10:25:45;8.30;;;4.50;;
70049;SDS011;57391;51.306;22.680;2022-09-20T10:36:57;8.00;;;4.30;;
70049;SDS011;57391;51.306;22.680;2022-09-20T10:39:32;8.20;;;4.00;;
70049;SDS011;57391;51.306;22.680;2022-09-20T10:45:40;8.00;;;4.10;;
70049;SDS011;57391;51.306;22.680;2022-09-20T10:51:03;7.40;;;3.90;;
70049;SDS011;57391;51.306;22.680;2022-09-20T10:56:32;6.40;;;3.50;;
70049;SDS011;57391;51.306;22.680;2022-09-20T11:02:44;6.70;;;4.10;;
70049;SDS011;57391;51.306;22.680;2022-09-20T11:08:42;6.00;;;3.70;;
70049;SDS011;57391;51.306;22.680;2022-09-20T11:11:22;5.90;;;3.60;;
70049;SDS011;57391;51.306;22.680;2022-09-20T11:16:38;5.70;;;3.60;;
70049;SDS011;57391;51.306;22.680;2022-09-20T11:19:47;7.10;;;3.80;;
70049;SDS011;57391;51.306;22.680;2022-09-20T11:22:27;6.80;;;4.10;;
70049;SDS011;57391;51.306;22.680;2022-09-20T11:25:18;8.20;;;4.30;;
70049;SDS011;57391;51.306;22.680;2022-09-20T11:33:42;5.80;;;3.20;;
70049;SDS011;57391;51.306;22.680;2022-09-20T11:36:41;6.00;;;3.30;;
70049;SDS011;57391;51.306;22.680;2022-09-20T11:39:28;5.90;;;3.40;;
70049;SDS011;57391;51.306;22.680;2022-09-20T11:42:03;6.90;;;3.60;;
70049;SDS011;57391;51.306;22.680;2022-09-20T11:44:39;6.70;;;3.50;;
70049;SDS011;57391;51.306;22.680;2022-09-20T11:50:07;5.70;;;3.50;;
70049;SDS011;57391;51.306;22.680;2022-09-20T11:56:20;5.90;;;3.30;;
70049;SDS011;57391;51.306;22.680;2022-09-20T11:58:58;6.70;;;3.70;;
70049;SDS011;57391;51.306;22.680;2022-09-20T12:01:30;6.10;;;3.70;;
70049;SDS011;57391;51.306;22.680;2022-09-20T12:06:44;6.40;;;3.80;;
70049;SDS011;57391;51.306;22.680;2022-09-20T12:09:29;5.50;;;3.20;;
70049;SDS011;57391;51.306;22.680;2022-09-20T12:12:14;6.70;;;3.60;;
70049;SDS011;57391;51.306;22.680;2022-09-20T12:14:58;5.70;;;3.70;;
70049;SDS011;57391;51.306;22.680;2022-09-20T12:28:50;4.70;;;2.20;;
70049;SDS011;57391;51.306;22.680;2022-09-20T12:36:31;3.60;;;2.20;;
70049;SDS011;57391;51.306;22.680;2022-09-20T12:42:03;5.90;;;2.70;;
70049;SDS011;57391;51.306;22.680;2022-09-20T12:47:23;5.50;;;3.50;;
70049;SDS011;57391;51.306;22.680;2022-09-20T12:50:00;5.70;;;3.20;;
70049;SDS011;57391;51.306;22.680;2022-09-20T12:52:51;4.00;;;2.20;;
70049;SDS011;57391;51.306;22.680;2022-09-20T12:58:33;1.20;;;0.80;;
70049;SDS011;57391;51.306;22.680;2022-09-20T13:03:50;0.80;;;0.60;;
70049;SDS011;57391;51.306;22.680;2022-09-20T13:08:46;0.90;;;0.50;;
70049;SDS011;57391;51.306;22.680;2022-09-20T13:14:13;1.10;;;0.70;;
70049;SDS011;57391;51.306;22.680;2022-09-20T13:19:49;2.80;;;1.30;;
70049;SDS011;57391;51.306;22.680;2022-09-20T13:24:56;3.20;;;1.70;;
70049;SDS011;57391;51.306;22.680;2022-09-20T13:27:34;6.00;;;1.70;;
70049;SDS011;57391;51.306;22.680;2022-09-20T13:30:22;2.90;;;1.30;;
70049;SDS011;57391;51.306;22.680;2022-09-20T13:32:51;3.30;;;1.20;;
70049;SDS011;57391;51.306;22.680;2022-09-20T13:35:23;2.90;;;1.10;;
70049;SDS011;57391;51.306;22.680;2022-09-20T13:38:03;2.50;;;1.00;;
70049;SDS011;57391;51.306;22.680;2022-09-20T13:40:41;1.80;;;0.90;;
70049;SDS011;57391;51.306;22.680;2022-09-20T13:43:26;2.10;;;1.10;;
70049;SDS011;57391;51.306;22.680;2022-09-20T13:46:22;2.20;;;1.10;;
70049;SDS011;57391;51.306;22.680;2022-09-20T13:49:17;2.60;;;1.20;;
70049;SDS011;57391;51.306;22.680;2022-09-20T13:51:49;2.60;;;1.10;;
70049;SDS011;57391;51.306;22.680;2022-09-20T13:54:26;2.80;;;1.10;;
70049;SDS011;57391;51.306;22.680;2022-09-20T13:57:00;3.50;;;1.30;;
70049;SDS011;57391;51.306;22.680;2022-09-20T13:59:34;3.00;;;1.40;;
70049;SDS011;57391;51.306;22.680;2022-09-20T14:02:22;6.40;;;1.70;;
70049;SDS011;57391;51.306;22.680;2022-09-20T14:04:53;4.50;;;2.10;;
70049;SDS011;57391;51.306;22.680;2022-09-20T14:07:23;3.60;;;1.80;;
70049;SDS011;57391;51.306;22.680;2022-09-20T14:09:54;6.40;;;1.90;;
70049;SDS011;57391;51.306;22.680;2022-09-20T14:12:25;4.50;;;1.90;;
70049;SDS011;57391;51.306;22.680;2022-09-20T14:14:53;4.60;;;1.90;;
70049;SDS011;57391;51.306;22.680;2022-09-20T14:17:22;4.30;;;2.20;;
70049;SDS011;57391;51.306;22.680;2022-09-20T14:19:52;4.10;;;2.20;;
70049;SDS011;57391;51.306;22.680;2022-09-20T14:22:27;5.70;;;2.40;;
70049;SDS011;57391;51.306;22.680;2022-09-20T14:25:17;5.40;;;2.20;;
70049;SDS011;57391;51.306;22.680;2022-09-20T14:27:47;4.50;;;2.30;;
70049;SDS011;57391;51.306;22.680;2022-09-20T14:30:35;5.00;;;2.00;;
70049;SDS011;57391;51.306;22.680;2022-09-20T14:33:04;4.30;;;2.20;;
70049;SDS011;57391;51.306;22.680;2022-09-20T14:35:32;6.80;;;2.60;;
70049;SDS011;57391;51.306;22.680;2022-09-20T14:38:06;4.50;;;2.20;;
70049;SDS011;57391;51.306;22.680;2022-09-20T14:40:46;6.30;;;2.70;;
70049;SDS011;57391;51.306;22.680;2022-09-20T14:43:33;5.40;;;2.70;;
70049;SDS011;57391;51.306;22.680;2022-09-20T14:46:34;5.90;;;2.40;;
70049;SDS011;57391;51.306;22.680;2022-09-20T14:51:53;4.60;;;2.30;;
70049;SDS011;57391;51.306;22.680;2022-09-20T14:54:40;6.40;;;2.70;;
70049;SDS011;57391;51.306;22.680;2022-09-20T14:57:07;5.00;;;2.80;;
70049;SDS011;57391;51.306;22.680;2022-09-20T14:59:41;5.00;;;2.70;;
70049;SDS011;57391;51.306;22.680;2022-09-20T15:02:14;5.30;;;2.80;;
70049;SDS011;57391;51.306;22.680;2022-09-20T15:04:51;5.30;;;2.90;;
70049;SDS011;57391;51.306;22.680;2022-09-20T15:07:21;4.80;;;2.90;;
70049;SDS011;57391;51.306;22.680;2022-09-20T15:09:48;5.10;;;3.00;;
70049;SDS011;57391;51.306;22.680;2022-09-20T15:12:18;5.30;;;2.90;;
70049;SDS011;57391;51.306;22.680;2022-09-20T15:14:47;5.10;;;2.80;;
70049;SDS011;57391;51.306;22.680;2022-09-20T15:17:18;5.60;;;2.80;;
70049;SDS011;57391;51.306;22.680;2022-09-20T15:19:47;5.30;;;3.00;;
70049;SDS011;57391;51.306;22.680;2022-09-20T15:22:35;5.90;;;3.00;;
70049;SDS011;57391;51.306;22.680;2022-09-20T15:25:04;4.80;;;2.90;;
70049;SDS011;57391;51.306;22.680;2022-09-20T15:27:32;6.60;;;3.30;;
70049;SDS011;57391;51.306;22.680;2022-09-20T15:29:59;6.30;;;3.40;;
70049;SDS011;57391;51.306;22.680;2022-09-20T15:32:26;6.40;;;3.30;;
70049;SDS011;57391;51.306;22.680;2022-09-20T15:34:52;5.10;;;2.90;;
70049;SDS011;57391;51.306;22.680;2022-09-20T15:37:19;6.10;;;3.40;;
70049;SDS011;57391;51.306;22.680;2022-09-20T15:39:46;5.40;;;3.10;;
70049;SDS011;57391;51.306;22.680;2022-09-20T15:42:13;6.00;;;3.20;;
70049;SDS011;57391;51.306;22.680;2022-09-20T15:44:40;6.00;;;3.30;;
70049;SDS011;57391;51.306;22.680;2022-09-20T15:47:07;4.90;;;2.80;;
70049;SDS011;57391;51.306;22.680;2022-09-20T15:49:34;5.10;;;3.00;;
70049;SDS011;57391;51.306;22.680;2022-09-20T15:52:01;6.90;;;3.10;;
70049;SDS011;57391;51.306;22.680;2022-09-20T15:54:28;5.70;;;3.20;;
70049;SDS011;57391;51.306;22.680;2022-09-20T15:56:55;6.20;;;2.80;;
70049;SDS011;57391;51.306;22.680;2022-09-20T15:59:27;5.50;;;2.80;;
70049;SDS011;57391;51.306;22.680;2022-09-20T16:01:56;5.60;;;2.50;;
70049;SDS011;57391;51.306;22.680;2022-09-20T16:04:23;5.10;;;3.00;;
70049;SDS011;57391;51.306;22.680;2022-09-20T16:06:52;4.70;;;2.90;;
70049;SDS011;57391;51.306;22.680;2022-09-20T16:09:20;5.10;;;2.90;;
70049;SDS011;57391;51.306;22.680;2022-09-20T16:11:47;5.30;;;2.80;;
70049;SDS011;57391;51.306;22.680;2022-09-20T16:14:16;5.90;;;3.20;;
70049;SDS011;57391;51.306;22.680;2022-09-20T16:16:43;6.30;;;3.10;;
70049;SDS011;57391;51.306;22.680;2022-09-20T16:19:10;5.70;;;3.20;;
70049;SDS011;57391;51.306;22.680;2022-09-20T16:21:48;5.90;;;3.00;;
70049;SDS011;57391;51.306;22.680;2022-09-20T16:24:23;6.50;;;3.40;;
70049;SDS011;57391;51.306;22.680;2022-09-20T16:26:52;5.70;;;3.30;;
70049;SDS011;57391;51.306;22.680;2022-09-20T16:29:20;5.90;;;3.30;;
70049;SDS011;57391;51.306;22.680;2022-09-20T16:31:49;6.00;;;3.40;;
70049;SDS011;57391;51.306;22.680;2022-09-20T16:34:28;5.80;;;3.30;;
70049;SDS011;57391;51.306;22.680;2022-09-20T16:37:02;5.80;;;3.00;;
70049;SDS011;57391;51.306;22.680;2022-09-20T16:39:31;7.50;;;3.40;;
70049;SDS011;57391;51.306;22.680;2022-09-20T16:42:09;6.80;;;3.20;;
70049;SDS011;57391;51.306;22.680;2022-09-20T16:44:40;6.00;;;3.30;;
70049;SDS011;57391;51.306;22.680;2022-09-20T16:47:14;6.60;;;3.80;;
70049;SDS011;57391;51.306;22.680;2022-09-20T16:49:48;5.60;;;3.20;;
70049;SDS011;57391;51.306;22.680;2022-09-20T16:52:16;6.50;;;3.40;;
70049;SDS011;57391;51.306;22.680;2022-09-20T16:54:44;6.50;;;3.90;;
70049;SDS011;57391;51.306;22.680;2022-09-20T16:57:12;6.60;;;3.80;;
70049;SDS011;57391;51.306;22.680;2022-09-20T16:59:40;7.50;;;4.60;;
70049;SDS011;57391;51.306;22.680;2022-09-20T17:02:10;9.10;;;5.80;;
70049;SDS011;57391;51.306;22.680;2022-09-20T17:04:38;8.90;;;6.30;;
70049;SDS011;57391;51.306;22.680;2022-09-20T17:07:05;11.30;;;7.10;;
70049;SDS011;57391;51.306;22.680;2022-09-20T17:09:32;10.50;;;7.40;;
70049;SDS011;57391;51.306;22.680;2022-09-20T17:11:59;13.70;;;7.60;;
70049;SDS011;57391;51.306;22.680;2022-09-20T17:14:30;10.10;;;5.50;;
70049;SDS011;57391;51.306;22.680;2022-09-20T17:16:57;9.80;;;4.90;;
70049;SDS011;57391;51.306;22.680;2022-09-20T17:19:24;8.50;;;4.50;;
70049;SDS011;57391;51.306;22.680;2022-09-20T17:21:52;9.00;;;5.00;;
70049;SDS011;57391;51.306;22.680;2022-09-20T17:24:20;9.20;;;4.80;;
70049;SDS011;57391;51.306;22.680;2022-09-20T17:26:49;8.90;;;4.70;;
70049;SDS011;57391;51.306;22.680;2022-09-20T17:29:18;11.20;;;5.90;;
70049;SDS011;57391;51.306;22.680;2022-09-20T17:31:48;11.50;;;6.60;;
70049;SDS011;57391;51.306;22.680;2022-09-20T17:34:18;12.90;;;6.80;;
70049;SDS011;57391;51.306;22.680;2022-09-20T17:36:47;12.40;;;7.00;;
70049;SDS011;57391;51.306;22.680;2022-09-20T17:39:16;12.00;;;6.80;;
70049;SDS011;57391;51.306;22.680;2022-09-20T17:41:47;13.30;;;6.80;;
70049;SDS011;57391;51.306;22.680;2022-09-20T17:44:15;13.10;;;6.80;;
70049;SDS011;57391;51.306;22.680;2022-09-20T17:46:45;12.10;;;7.30;;
70049;SDS011;57391;51.306;22.680;2022-09-20T17:49:19;12.80;;;6.30;;
70049;SDS011;57391;51.306;22.680;2022-09-20T17:51:53;10.20;;;6.20;;
70049;SDS011;57391;51.306;22.680;2022-09-20T17:54:22;12.30;;;6.70;;
70049;SDS011;57391;51.306;22.680;2022-09-20T17:56:51;11.50;;;6.20;;
70049;SDS011;57391;51.306;22.680;2022-09-20T17:59:21;13.20;;;7.10;;
70049;SDS011;57391;51.306;22.680;2022-09-20T18:01:52;11.00;;;6.30;;
70049;SDS011;57391;51.306;22.680;2022-09-20T18:04:21;12.70;;;7.10;;
70049;SDS011;57391;51.306;22.680;2022-09-20T18:06:52;12.80;;;7.50;;
70049;SDS011;57391;51.306;22.680;2022-09-20T18:09:24;14.80;;;7.80;;
70049;SDS011;57391;51.306;22.680;2022-09-20T18:11:53;15.00;;;9.00;;
70049;SDS011;57391;51.306;22.680;2022-09-20T18:14:26;15.10;;;8.60;;
70049;SDS011;57391;51.306;22.680;2022-09-20T18:16:57;14.80;;;7.30;;
70049;SDS011;57391;51.306;22.680;2022-09-20T18:19:26;11.40;;;6.70;;
70049;SDS011;57391;51.306;22.680;2022-09-20T18:21:59;12.60;;;6.40;;
70049;SDS011;57391;51.306;22.680;2022-09-20T18:24:47;10.40;;;6.50;;
70049;SDS011;57391;51.306;22.680;2022-09-20T18:27:14;8.50;;;5.40;;
70049;SDS011;57391;51.306;22.680;2022-09-20T18:29:43;9.40;;;5.90;;
70049;SDS011;57391;51.306;22.680;2022-09-20T18:32:10;10.70;;;6.60;;
70049;SDS011;57391;51.306;22.680;2022-09-20T18:34:38;10.70;;;6.60;;
70049;SDS011;57391;51.306;22.680;2022-09-20T18:37:05;9.60;;;5.90;;
70049;SDS011;57391;51.306;22.680;2022-09-20T18:39:34;10.60;;;6.80;;
70049;SDS011;57391;51.306;22.680;2022-09-20T18:42:03;10.50;;;6.60;;
70049;SDS011;57391;51.306;22.680;2022-09-20T18:44:32;10.90;;;7.10;;
70049;SDS011;57391;51.306;22.680;2022-09-20T18:47:02;10.80;;;6.50;;
70049;SDS011;57391;51.306;22.680;2022-09-20T18:49:30;10.30;;;6.60;;
70049;SDS011;57391;51.306;22.680;2022-09-20T18:51:58;10.00;;;5.80;;
70049;SDS011;57391;51.306;22.680;2022-09-20T18:54:26;11.10;;;6.10;;
70049;SDS011;57391;51.306;22.680;2022-09-20T18:57:01;12.00;;;7.20;;
70049;SDS011;57391;51.306;22.680;2022-09-20T18:59:30;10.10;;;6.30;;
70049;SDS011;57391;51.306;22.680;2022-09-20T19:07:45;14.30;;;9.10;;
70049;SDS011;57391;51.306;22.680;2022-09-20T19:10:42;20.60;;;12.10;;
70049;SDS011;57391;51.306;22.680;2022-09-20T19:13:33;13.60;;;10.00;;
70049;SDS011;57391;51.306;22.680;2022-09-20T19:16:21;10.00;;;6.60;;
70049;SDS011;57391;51.306;22.680;2022-09-20T19:21:58;18.80;;;13.90;;
70049;SDS011;57391;51.306;22.680;2022-09-20T19:27:29;11.80;;;6.90;;
70049;SDS011;57391;51.306;22.680;2022-09-20T19:29:57;24.00;;;14.60;;
70049;SDS011;57391;51.306;22.680;2022-09-20T19:32:24;68.20;;;33.20;;
70049;SDS011;57391;51.306;22.680;2022-09-20T19:34:54;56.60;;;28.40;;
70049;SDS011;57391;51.306;22.680;2022-09-20T19:40:24;15.10;;;9.40;;
70049;SDS011;57391;51.306;22.680;2022-09-20T19:49:53;8.50;;;5.80;;
70049;SDS011;57391;51.306;22.680;2022-09-20T19:52:24;7.30;;;4.60;;
70049;SDS011;57391;51.306;22.680;2022-09-20T19:54:52;8.40;;;4.20;;
70049;SDS011;57391;51.306;22.680;2022-09-20T19:57:28;6.80;;;4.00;;
70049;SDS011;57391;51.306;22.680;2022-09-20T20:00:06;6.70;;;3.80;;
70049;SDS011;57391;51.306;22.680;2022-09-20T20:02:42;8.00;;;4.10;;
70049;SDS011;57391;51.306;22.680;2022-09-20T20:05:12;8.00;;;4.10;;
70049;SDS011;57391;51.306;22.680;2022-09-20T20:23:07;7.90;;;4.10;;
70049;SDS011;57391;51.306;22.680;2022-09-20T20:26:22;7.30;;;3.60;;
70049;SDS011;57391;51.306;22.680;2022-09-20T20:28:51;6.90;;;3.50;;
70049;SDS011;57391;51.306;22.680;2022-09-20T20:31:19;6.80;;;3.70;;
70049;SDS011;57391;51.306;22.680;2022-09-20T20:33:47;7.70;;;4.10;;
70049;SDS011;57391;51.306;22.680;2022-09-20T20:36:18;7.70;;;4.00;;
70049;SDS011;57391;51.306;22.680;2022-09-20T20:38:45;7.70;;;4.10;;
70049;SDS011;57391;51.306;22.680;2022-09-20T20:41:17;8.70;;;4.60;;